createdAt,value
2017-10-19T00:02:25.430Z,79.22
2017-10-19T00:04:51.761Z,79.86
2017-10-19T00:07:18.113Z,79.88
2017-10-19T00:09:45.135Z,80.12
2017-10-19T00:12:11.508Z,80.83
2017-10-19T00:14:37.927Z,80.77
2017-10-19T00:17:04.349Z,80.83
2017-10-19T00:19:30.667Z,80.44
2017-10-19T00:21:57.082Z,80.64
2017-10-19T00:24:23.436Z,80.45
2017-10-19T00:26:49.766Z,80.54
2017-10-19T00:29:16.103Z,80.76
2017-10-19T00:31:42.384Z,80.91
2017-10-19T00:34:08.698Z,81.63
2017-10-19T00:36:35.816Z,80.85
2017-10-19T00:39:02.139Z,81.63
2017-10-19T00:41:28.472Z,81.40
2017-10-19T00:43:54.859Z,81.44
2017-10-19T00:46:21.410Z,80.67
2017-10-19T00:48:47.729Z,81.05
2017-10-19T00:51:14.107Z,80.90
2017-10-19T00:53:40.446Z,81.05
2017-10-19T00:56:06.805Z,81.56
2017-10-19T00:58:33.113Z,81.38
2017-10-19T01:00:59.459Z,81.38
2017-10-19T01:03:26.559Z,81.35
2017-10-19T01:05:52.959Z,81.02
2017-10-19T01:08:19.399Z,81.33
2017-10-19T01:10:45.763Z,80.98
2017-10-19T01:13:12.113Z,80.98
2017-10-19T01:15:38.460Z,81.27
2017-10-19T01:18:04.904Z,82.28
2017-10-19T01:20:31.945Z,81.79
2017-10-19T01:22:59.094Z,81.65
2017-10-19T01:25:26.444Z,81.29
2017-10-19T01:27:52.827Z,81.63
2017-10-19T01:30:19.783Z,81.28
2017-10-19T01:32:46.258Z,81.46
2017-10-19T01:35:13.337Z,81.41
2017-10-19T01:37:40.605Z,81.70
2017-10-19T01:40:06.992Z,82.08
2017-10-19T01:42:33.353Z,82.26
2017-10-19T01:45:00.433Z,82.21
2017-10-19T01:47:26.781Z,81.98
2017-10-19T01:49:59.078Z,81.94
2017-10-19T01:52:25.472Z,81.95
2017-10-19T01:54:51.904Z,81.89
2017-10-19T01:57:18.266Z,82.06
2017-10-19T01:59:44.601Z,81.70
2017-10-19T02:02:10.976Z,80.78
2017-10-19T02:04:37.307Z,80.47
2017-10-19T02:07:03.804Z,80.97
2017-10-19T02:09:30.127Z,81.36
2017-10-19T02:11:56.459Z,80.39
2017-10-19T02:14:22.787Z,79.96
2017-10-19T02:16:49.137Z,80.16
2017-10-19T02:19:15.489Z,81.11
2017-10-19T02:21:42.573Z,80.35
2017-10-19T02:24:09.111Z,80.25
2017-10-19T02:26:35.466Z,80.64
2017-10-19T02:29:01.788Z,80.57
2017-10-19T02:31:28.150Z,80.49
2017-10-19T02:33:55.275Z,80.94
2017-10-19T02:36:21.618Z,80.88
2017-10-19T02:38:47.989Z,80.70
2017-10-19T02:41:14.350Z,80.84
2017-10-19T02:43:40.702Z,81.20
2017-10-19T02:46:07.048Z,81.36
2017-10-19T02:48:33.395Z,81.31
2017-10-19T02:50:59.742Z,81.45
2017-10-19T02:53:26.132Z,80.95
2017-10-19T02:55:52.598Z,81.31
2017-10-19T02:58:18.917Z,80.95
2017-10-19T03:00:45.979Z,81.29
2017-10-19T03:03:12.354Z,81.57
2017-10-19T03:05:38.804Z,81.39
2017-10-19T03:08:05.252Z,81.23
2017-10-19T03:10:31.602Z,81.56
2017-10-19T03:12:58.748Z,81.57
2017-10-19T03:15:25.867Z,81.56
2017-10-19T03:17:53.185Z,81.85
2017-10-19T03:20:19.611Z,82.14
2017-10-19T03:22:45.929Z,81.98
2017-10-19T03:25:13.005Z,81.91
2017-10-19T03:27:39.487Z,82.17
2017-10-19T03:30:05.937Z,82.07
2017-10-19T03:32:32.441Z,81.73
2017-10-19T03:34:58.841Z,81.84
2017-10-19T03:37:25.206Z,82.07
2017-10-19T03:39:52.449Z,81.92
2017-10-19T03:42:19.826Z,82.15
2017-10-19T03:44:46.345Z,82.04
2017-10-19T03:47:12.898Z,81.73
2017-10-19T03:49:39.532Z,81.85
2017-10-19T03:52:06.061Z,81.85
2017-10-19T03:54:32.612Z,81.63
2017-10-19T03:56:58.965Z,81.19
2017-10-19T03:59:26.269Z,81.18
2017-10-19T04:01:52.620Z,81.12
2017-10-19T04:04:18.958Z,80.87
2017-10-19T04:06:45.335Z,80.73
2017-10-19T04:09:11.663Z,80.83
2017-10-19T04:11:37.988Z,80.72
2017-10-19T04:14:04.401Z,81.42
2017-10-19T04:16:30.741Z,81.67
2017-10-19T04:18:57.191Z,82.12
2017-10-19T04:21:23.635Z,82.16
2017-10-19T04:23:50.073Z,82.12
2017-10-19T04:26:16.463Z,81.97
2017-10-19T04:28:43.652Z,81.84
2017-10-19T04:31:10.066Z,82.14
2017-10-19T04:33:37.276Z,82.14
2017-10-19T04:36:03.762Z,82.10
2017-10-19T04:38:30.178Z,81.89
2017-10-19T04:40:56.813Z,81.93
2017-10-19T04:43:30.330Z,81.88
2017-10-19T04:45:56.889Z,82.04
2017-10-19T04:48:23.315Z,81.85
2017-10-19T04:50:49.960Z,81.64
2017-10-19T04:53:16.325Z,81.49
2017-10-19T04:55:43.700Z,81.75
2017-10-19T04:58:10.033Z,81.68
2017-10-19T05:00:36.408Z,81.98
2017-10-19T05:03:02.748Z,82.11
2017-10-19T05:05:29.112Z,81.98
2017-10-19T05:07:55.469Z,81.96
2017-10-19T05:10:22.580Z,82.12
2017-10-19T05:12:48.958Z,82.64
2017-10-19T05:15:15.596Z,82.24
2017-10-19T05:17:42.082Z,82.30
2017-10-19T05:20:08.546Z,82.10
2017-10-19T05:22:34.994Z,81.79
2017-10-19T05:25:01.550Z,81.84
2017-10-19T05:27:27.944Z,82.18
2017-10-19T05:29:54.387Z,82.60
2017-10-19T05:32:21.474Z,82.39
2017-10-19T05:34:47.940Z,82.40
2017-10-19T05:37:16.189Z,82.40
2017-10-19T05:39:42.555Z,82.33
2017-10-19T05:42:09.257Z,82.32
2017-10-19T05:44:35.602Z,81.79
2017-10-19T05:47:01.968Z,81.98
2017-10-19T05:49:28.278Z,81.92
2017-10-19T05:51:54.649Z,82.02
2017-10-19T05:54:21.947Z,81.90
2017-10-19T05:56:48.444Z,81.95
2017-10-19T05:59:14.858Z,82.00
2017-10-19T06:01:41.302Z,81.97
2017-10-19T06:04:07.757Z,81.73
2017-10-19T06:06:34.172Z,81.69
2017-10-19T06:09:01.678Z,81.11
2017-10-19T06:11:28.031Z,80.85
2017-10-19T06:13:54.378Z,80.93
2017-10-19T06:16:20.729Z,80.75
2017-10-19T06:18:47.807Z,80.25
2017-10-19T06:21:14.177Z,79.87
2017-10-19T06:23:40.627Z,79.81
2017-10-19T06:26:07.345Z,79.70
2017-10-19T06:28:33.687Z,79.38
2017-10-19T06:31:00.195Z,79.37
2017-10-19T06:33:26.561Z,78.95
2017-10-19T06:35:53.822Z,79.03
2017-10-19T06:38:20.178Z,78.93
2017-10-19T06:40:47.264Z,78.75
2017-10-19T06:43:14.658Z,78.45
2017-10-19T06:45:41.762Z,78.62
2017-10-19T06:48:08.210Z,78.53
2017-10-19T06:50:34.592Z,78.17
2017-10-19T06:53:01.891Z,77.88
2017-10-19T06:55:28.322Z,77.51
2017-10-19T06:57:55.744Z,77.49
2017-10-19T07:00:22.269Z,76.76
2017-10-19T07:02:49.362Z,76.31
2017-10-19T07:05:15.712Z,75.92
2017-10-19T07:07:42.081Z,75.01
2017-10-19T07:10:09.187Z,74.53
2017-10-19T07:12:35.543Z,74.41
2017-10-19T07:15:01.923Z,73.31
2017-10-19T07:17:28.289Z,73.37
2017-10-19T07:19:54.585Z,73.11
2017-10-19T07:22:21.008Z,72.56
2017-10-19T07:24:47.387Z,72.23
2017-10-19T07:27:13.666Z,71.50
2017-10-19T07:29:40.973Z,71.05
2017-10-19T07:32:07.267Z,70.52
2017-10-19T07:34:33.566Z,69.88
2017-10-19T07:37:00.580Z,69.53
2017-10-19T07:39:26.883Z,69.60
2017-10-19T07:41:53.242Z,69.54
2017-10-19T07:44:19.552Z,69.53
2017-10-19T07:46:46.301Z,69.28
2017-10-19T07:49:12.648Z,69.58
2017-10-19T07:51:38.980Z,69.58
2017-10-19T07:54:05.458Z,68.67
2017-10-19T07:56:32.532Z,68.21
2017-10-19T07:58:58.896Z,67.58
2017-10-19T08:01:25.237Z,67.37
2017-10-19T08:03:52.187Z,66.79
2017-10-19T08:06:18.510Z,66.97
2017-10-19T08:08:44.793Z,66.30
2017-10-19T08:11:11.177Z,66.10
2017-10-19T08:13:37.473Z,66.00
2017-10-19T08:16:04.261Z,65.72
2017-10-19T08:18:30.567Z,65.26
2017-10-19T08:20:56.963Z,64.89
2017-10-19T08:23:23.290Z,65.17
2017-10-19T08:25:49.672Z,64.10
2017-10-19T08:28:16.278Z,63.65
2017-10-19T08:30:42.820Z,63.34
2017-10-19T08:33:09.191Z,63.81
2017-10-19T08:35:35.606Z,63.70
2017-10-19T08:38:02.016Z,63.12
2017-10-19T08:40:28.404Z,63.05
2017-10-19T08:42:55.477Z,63.41
2017-10-19T08:45:21.852Z,62.97
2017-10-19T08:47:48.280Z,62.35
2017-10-19T08:50:14.690Z,62.07
2017-10-19T08:52:40.992Z,61.97
2017-10-19T08:55:08.112Z,61.76
2017-10-19T08:57:34.488Z,62.09
2017-10-19T09:00:00.847Z,61.99
2017-10-19T09:02:27.135Z,61.71
2017-10-19T09:04:54.185Z,61.51
2017-10-19T09:07:20.474Z,61.22
2017-10-19T09:09:46.815Z,60.50
2017-10-19T09:12:13.103Z,60.62
2017-10-19T09:14:39.466Z,60.63
2017-10-19T09:17:05.881Z,60.28
2017-10-19T09:19:32.233Z,59.88
2017-10-19T09:21:58.591Z,59.14
2017-10-19T09:24:25.677Z,58.37
2017-10-19T09:26:52.050Z,58.61
2017-10-19T09:29:18.347Z,59.00
2017-10-19T09:31:44.798Z,59.19
2017-10-19T09:34:11.073Z,59.45
2017-10-19T09:36:38.256Z,59.87
2017-10-19T09:39:04.687Z,59.55
2017-10-19T09:41:30.957Z,58.63
2017-10-19T09:43:57.340Z,58.05
2017-10-19T09:46:23.639Z,57.91
2017-10-19T09:48:50.009Z,57.26
2017-10-19T09:51:16.463Z,57.01
2017-10-19T09:53:42.938Z,56.99
2017-10-19T09:56:10.138Z,56.77
2017-10-19T09:58:36.508Z,56.21
2017-10-19T10:01:02.842Z,56.39
2017-10-19T10:03:29.267Z,57.09
2017-10-19T10:05:55.706Z,57.13
2017-10-19T10:08:22.036Z,56.81
2017-10-19T10:10:48.488Z,57.13
2017-10-19T10:13:14.832Z,57.13
2017-10-19T10:15:42.014Z,56.93
2017-10-19T10:18:08.373Z,56.44
2017-10-19T10:20:34.659Z,56.12
2017-10-19T10:23:01.049Z,56.06
2017-10-19T10:25:27.474Z,55.68
2017-10-19T10:27:53.932Z,55.91
2017-10-19T10:30:20.296Z,55.87
2017-10-19T10:32:46.651Z,56.40
2017-10-19T10:35:12.961Z,55.67
2017-10-19T10:37:39.354Z,54.97
2017-10-19T10:40:06.407Z,54.94
2017-10-19T10:42:32.746Z,54.40
2017-10-19T10:44:59.887Z,54.20
2017-10-19T10:47:26.318Z,54.30
2017-10-19T10:49:53.418Z,53.82
2017-10-19T10:52:19.732Z,53.84
2017-10-19T10:54:46.217Z,52.87
2017-10-19T10:57:12.548Z,52.35
2017-10-19T10:59:39.804Z,50.68
2017-10-19T11:02:06.370Z,48.37
2017-10-19T11:04:33.490Z,44.13
2017-10-19T11:06:59.820Z,40.49
2017-10-19T11:09:26.204Z,36.69
2017-10-19T11:11:52.496Z,33.93
2017-10-19T11:14:18.824Z,31.62
2017-10-19T11:16:45.150Z,29.01
2017-10-19T11:19:11.516Z,26.84
2017-10-19T11:21:38.638Z,26.15
2017-10-19T11:24:04.967Z,24.52
2017-10-19T11:26:31.442Z,23.13
2017-10-19T11:28:57.756Z,22.11
2017-10-19T11:31:24.853Z,21.36
2017-10-19T11:33:51.134Z,20.03
2017-10-19T11:36:18.182Z,18.92
2017-10-19T11:38:45.255Z,17.59
2017-10-19T11:41:11.575Z,17.86
2017-10-19T11:43:38.669Z,16.97
2017-10-19T11:46:04.960Z,16.20
2017-10-19T11:48:31.258Z,15.64
2017-10-19T11:50:58.405Z,15.10
2017-10-19T11:53:24.762Z,15.37
2017-10-19T11:55:51.110Z,15.28
2017-10-19T11:58:17.471Z,15.80
2017-10-19T12:00:43.925Z,14.58
2017-10-19T12:03:10.308Z,14.66
2017-10-19T12:05:37.425Z,14.05
2017-10-19T12:08:05.464Z,14.10
2017-10-19T12:10:31.937Z,13.56
2017-10-19T12:12:59.075Z,13.60
2017-10-19T12:15:25.441Z,12.87
2017-10-19T12:17:51.760Z,12.26
2017-10-19T12:20:19.910Z,13.15
2017-10-19T12:22:46.360Z,13.93
2017-10-19T12:25:13.420Z,14.16
2017-10-19T12:27:39.750Z,14.07
2017-10-19T12:30:06.938Z,14.42
2017-10-19T12:32:33.306Z,14.89
2017-10-19T12:34:59.619Z,14.54
2017-10-19T12:37:25.969Z,14.13
2017-10-19T12:39:52.300Z,13.90
2017-10-19T12:42:18.566Z,14.01
2017-10-19T12:44:44.883Z,13.42
2017-10-19T12:47:12.003Z,13.98
2017-10-19T12:49:38.342Z,13.34
2017-10-19T12:52:04.640Z,13.17
2017-10-19T12:54:31.206Z,12.63
2017-10-19T12:56:57.673Z,13.16
2017-10-19T12:59:24.026Z,13.90
2017-10-19T13:01:50.637Z,13.62
2017-10-19T13:04:17.891Z,14.49
2017-10-19T13:06:44.329Z,14.84
2017-10-19T13:09:10.693Z,15.42
2017-10-19T13:11:37.279Z,15.76
2017-10-19T13:14:04.393Z,15.40
2017-10-19T13:16:30.745Z,15.67
2017-10-19T13:18:57.165Z,14.45
2017-10-19T13:21:23.506Z,14.69
2017-10-19T13:23:49.828Z,14.97
2017-10-19T13:26:16.168Z,15.76
2017-10-19T13:28:43.255Z,14.52
2017-10-19T13:31:10.142Z,13.74
2017-10-19T13:33:36.414Z,14.22
2017-10-19T13:36:04.380Z,14.49
2017-10-19T13:38:31.467Z,15.20
2017-10-19T13:40:57.811Z,15.32
2017-10-19T13:43:31.234Z,14.71
2017-10-19T13:45:57.697Z,13.95
2017-10-19T13:48:24.890Z,14.30
2017-10-19T13:50:51.220Z,14.23
2017-10-19T13:53:17.902Z,14.89
2017-10-19T13:55:44.240Z,15.95
2017-10-19T13:58:10.558Z,16.84
2017-10-19T14:00:37.203Z,16.69
2017-10-19T14:03:03.558Z,16.08
2017-10-19T14:05:30.691Z,15.97
2017-10-19T14:07:57.947Z,15.96
2017-10-19T14:10:24.381Z,16.65
2017-10-19T14:12:50.929Z,16.75
2017-10-19T14:15:19.010Z,16.85
2017-10-19T14:17:45.324Z,16.99
2017-10-19T14:20:12.435Z,16.66
2017-10-19T14:22:38.793Z,16.46
2017-10-19T14:25:05.099Z,16.82
2017-10-19T14:27:31.457Z,16.89
2017-10-19T14:29:57.964Z,17.56
2017-10-19T14:32:24.303Z,17.32
2017-10-19T14:34:50.625Z,17.43
2017-10-19T14:37:16.886Z,17.94
2017-10-19T14:39:43.277Z,17.78
2017-10-19T14:42:09.627Z,18.00
2017-10-19T14:44:35.958Z,18.40
2017-10-19T14:47:02.341Z,19.89
2017-10-19T14:49:28.774Z,21.59
2017-10-19T14:51:55.106Z,24.97
2017-10-19T14:54:21.440Z,28.72
2017-10-19T14:56:47.842Z,31.96
2017-10-19T14:59:14.983Z,35.37
2017-10-19T15:01:41.498Z,38.09
2017-10-19T15:04:07.910Z,39.75
2017-10-19T15:06:34.329Z,41.35
2017-10-19T15:09:00.730Z,42.79
2017-10-19T15:11:27.019Z,43.54
2017-10-19T15:13:53.306Z,44.53
2017-10-19T15:16:20.329Z,45.75
2017-10-19T15:18:46.760Z,46.71
2017-10-19T15:21:13.287Z,47.41
2017-10-19T15:23:39.790Z,47.72
2017-10-19T15:26:06.101Z,48.96
2017-10-19T15:28:32.819Z,49.92
2017-10-19T15:30:59.867Z,50.77
2017-10-19T15:33:26.906Z,51.86
2017-10-19T15:35:53.195Z,52.46
2017-10-19T15:38:19.526Z,53.10
2017-10-19T15:40:45.861Z,53.81
2017-10-19T15:43:12.258Z,54.13
2017-10-19T15:45:39.381Z,54.60
2017-10-19T15:48:05.690Z,54.90
2017-10-19T15:50:32.034Z,55.06
2017-10-19T15:52:58.440Z,55.73
2017-10-19T15:55:24.802Z,56.78
2017-10-19T15:57:51.240Z,57.36
2017-10-19T16:00:17.603Z,58.41
2017-10-19T16:02:43.924Z,59.46
2017-10-19T16:05:10.976Z,60.05
2017-10-19T16:07:38.089Z,60.27
2017-10-19T16:10:04.408Z,60.78
2017-10-19T16:12:30.722Z,61.26
2017-10-19T16:14:57.111Z,61.41
2017-10-19T16:17:24.177Z,61.90
2017-10-19T16:19:50.541Z,62.59
2017-10-19T16:22:16.851Z,62.86
2017-10-19T16:24:44.150Z,63.93
2017-10-19T16:27:10.518Z,64.22
2017-10-19T16:29:37.623Z,64.47
2017-10-19T16:32:03.980Z,64.51
2017-10-19T16:34:31.028Z,64.48
2017-10-19T16:36:57.329Z,64.39
2017-10-19T16:39:23.657Z,64.64
2017-10-19T16:41:50.032Z,64.90
2017-10-19T16:44:21.415Z,64.75
2017-10-19T16:46:50.313Z,64.90
2017-10-19T16:51:50.872Z,65.59
2017-10-19T16:54:17.164Z,65.94
2017-10-19T16:56:43.512Z,65.89
2017-10-19T16:59:10.011Z,66.55
2017-10-19T17:01:37.154Z,67.11
2017-10-19T17:04:04.546Z,67.10
2017-10-19T17:06:31.054Z,67.00
2017-10-19T17:08:58.163Z,67.15
2017-10-19T17:11:24.475Z,67.40
2017-10-19T17:13:50.821Z,68.19
2017-10-19T17:16:17.292Z,68.37
2017-10-19T17:18:43.668Z,68.57
2017-10-19T17:21:10.060Z,68.89
2017-10-19T17:23:36.385Z,69.07
2017-10-19T17:26:02.842Z,68.85
2017-10-19T17:28:30.065Z,68.72
2017-10-19T17:30:58.210Z,69.21
2017-10-19T17:33:24.735Z,69.24
2017-10-19T17:35:51.078Z,69.29
2017-10-19T17:38:18.267Z,69.45
2017-10-19T17:40:44.719Z,69.99
2017-10-19T17:43:11.826Z,70.48
2017-10-19T17:45:38.298Z,70.45
2017-10-19T17:48:05.378Z,70.32
2017-10-19T17:50:31.750Z,70.26
2017-10-19T17:52:58.136Z,70.33
2017-10-19T17:55:24.504Z,70.28
2017-10-19T17:57:50.889Z,70.50
2017-10-19T18:00:17.237Z,70.53
2017-10-19T18:02:43.533Z,70.82
2017-10-19T18:05:09.887Z,70.78
2017-10-19T18:07:36.233Z,71.18
2017-10-19T18:10:03.250Z,71.38
2017-10-19T18:12:30.335Z,71.56
2017-10-19T18:14:56.686Z,71.40
2017-10-19T18:17:22.996Z,71.30
2017-10-19T18:19:49.303Z,71.25
2017-10-19T18:22:15.582Z,71.28
2017-10-19T18:24:41.924Z,71.41
2017-10-19T18:27:09.844Z,71.56
2017-10-19T18:29:36.257Z,71.72
2017-10-19T18:32:03.347Z,71.69
2017-10-19T18:34:29.691Z,72.07
2017-10-19T18:36:55.958Z,72.08
2017-10-19T18:39:22.299Z,72.08
2017-10-19T18:41:49.366Z,71.80
2017-10-19T18:44:15.760Z,71.87
2017-10-19T18:46:42.251Z,71.80
2017-10-19T18:49:08.705Z,71.91
2017-10-19T18:51:35.048Z,71.75
2017-10-19T18:54:01.388Z,72.07
2017-10-19T18:56:27.747Z,72.02
2017-10-19T18:58:54.129Z,72.34
2017-10-19T19:01:20.926Z,72.31
2017-10-19T19:03:48.382Z,72.90
2017-10-19T19:06:15.640Z,73.18
2017-10-19T19:08:42.031Z,73.06
2017-10-19T19:11:08.528Z,73.20
2017-10-19T19:13:35.987Z,73.62
2017-10-19T19:16:04.774Z,73.97
2017-10-19T19:18:31.153Z,73.72
2017-10-19T19:20:58.279Z,73.61
2017-10-19T19:23:24.715Z,73.54
2017-10-19T19:25:51.427Z,73.56
2017-10-19T19:28:17.957Z,73.56
2017-10-19T19:30:44.315Z,73.67
2017-10-19T19:33:11.424Z,73.23
2017-10-19T19:35:38.570Z,73.14
2017-10-19T19:38:06.522Z,73.36
2017-10-19T19:40:33.560Z,73.63
2017-10-19T19:42:59.992Z,73.81
2017-10-19T19:45:26.361Z,73.59
2017-10-19T19:47:52.843Z,73.47
2017-10-19T19:50:19.147Z,73.48
2017-10-19T19:52:45.505Z,73.15
2017-10-19T19:55:11.793Z,72.90
2017-10-19T19:57:39.108Z,74.01
2017-10-19T20:00:05.440Z,74.24
2017-10-19T20:02:31.875Z,74.01
2017-10-19T20:04:58.196Z,73.50
2017-10-19T20:07:24.489Z,73.43
2017-10-19T20:09:50.890Z,72.96
2017-10-19T20:12:17.966Z,72.44
2017-10-19T20:14:44.296Z,72.13
2017-10-19T20:17:10.598Z,72.01
2017-10-19T20:19:37.670Z,72.24
2017-10-19T20:22:04.116Z,72.12
2017-10-19T20:24:30.605Z,71.68
2017-10-19T20:26:57.028Z,71.19
2017-10-19T20:29:23.477Z,71.44
2017-10-19T20:31:49.784Z,71.05
2017-10-19T20:34:16.077Z,70.90
2017-10-19T20:36:42.551Z,70.62
2017-10-19T20:39:08.890Z,70.53
2017-10-19T20:41:35.440Z,71.12
2017-10-19T20:44:01.900Z,71.38
2017-10-19T20:46:28.260Z,71.27
2017-10-19T20:48:54.583Z,71.07
2017-10-19T20:51:21.068Z,70.95
2017-10-19T20:53:47.381Z,71.15
2017-10-19T20:56:13.755Z,71.24
2017-10-19T20:58:40.076Z,71.75
2017-10-19T21:01:07.235Z,71.48
2017-10-19T21:03:33.797Z,71.62
2017-10-19T21:06:00.217Z,70.72
2017-10-19T21:08:26.827Z,71.24
2017-10-19T21:10:53.911Z,71.40
2017-10-19T21:13:20.314Z,71.10
2017-10-19T21:15:47.489Z,70.97
2017-10-19T21:18:13.816Z,71.18
2017-10-19T21:20:40.175Z,71.40
2017-10-19T21:23:06.700Z,70.94
2017-10-19T21:25:33.064Z,71.24
2017-10-19T21:27:59.461Z,71.33
2017-10-19T21:30:25.826Z,70.75
2017-10-19T21:32:52.326Z,70.91
2017-10-19T21:35:18.694Z,71.12
2017-10-19T21:37:45.045Z,70.82
2017-10-19T21:40:11.381Z,70.33
2017-10-19T21:42:37.787Z,70.08
2017-10-19T21:45:04.207Z,70.10
2017-10-19T21:47:30.690Z,70.45
2017-10-19T21:49:57.758Z,70.49
2017-10-19T21:52:24.115Z,70.36
2017-10-19T21:54:50.533Z,70.33
2017-10-19T21:57:16.868Z,70.32
2017-10-19T21:59:43.210Z,70.27
2017-10-19T22:02:09.604Z,70.23
2017-10-19T22:04:36.721Z,70.27
2017-10-19T22:07:03.089Z,70.46
2017-10-19T22:09:29.963Z,69.88
2017-10-19T22:11:56.309Z,69.98
2017-10-19T22:14:22.673Z,70.09
2017-10-19T22:16:48.973Z,70.18
2017-10-19T22:19:15.361Z,70.64
2017-10-19T22:21:42.424Z,70.37
2017-10-19T22:24:08.801Z,70.51
2017-10-19T22:26:35.165Z,70.23
2017-10-19T22:29:02.218Z,70.31
2017-10-19T22:31:29.368Z,70.18
2017-10-19T22:33:55.685Z,70.78
2017-10-19T22:36:22.126Z,70.96
2017-10-19T22:38:49.279Z,71.57
2017-10-19T22:41:15.617Z,71.40
2017-10-19T22:43:42.754Z,71.53
2017-10-19T22:46:09.914Z,71.99
2017-10-19T22:48:36.995Z,72.37
2017-10-19T22:51:03.400Z,72.60
2017-10-19T22:53:30.509Z,72.61
2017-10-19T22:55:56.810Z,72.48
2017-10-19T22:58:23.141Z,72.80
2017-10-19T23:00:49.494Z,73.47
2017-10-19T23:03:16.657Z,73.57
2017-10-19T23:05:43.056Z,73.93
2017-10-19T23:08:09.455Z,73.89
2017-10-19T23:10:36.573Z,74.23
2017-10-19T23:13:02.960Z,74.26
2017-10-19T23:15:29.338Z,74.41
2017-10-19T23:17:55.663Z,74.21
2017-10-19T23:20:22.170Z,74.17
2017-10-19T23:22:48.529Z,74.43
2017-10-19T23:25:14.923Z,74.71
2017-10-19T23:27:41.311Z,75.10
2017-10-19T23:30:07.670Z,75.35
2017-10-19T23:32:34.798Z,75.56
2017-10-19T23:35:01.264Z,75.37
2017-10-19T23:37:27.619Z,75.31
2017-10-19T23:39:53.982Z,75.17
2017-10-19T23:42:20.330Z,75.21
2017-10-19T23:44:46.834Z,75.34
2017-10-19T23:47:13.179Z,75.28
2017-10-19T23:49:39.594Z,75.93
2017-10-19T23:52:05.949Z,75.92
2017-10-19T23:54:32.322Z,75.91
2017-10-19T23:56:58.660Z,75.96
2017-10-19T23:59:25.019Z,75.90
